createdAt,value
2023-02-17T00:00:55.851Z,7.50
2023-02-17T00:03:25.316Z,7.60
2023-02-17T00:05:53.448Z,7.60
2023-02-17T00:08:21.470Z,7.60
2023-02-17T00:10:58.951Z,7.60
2023-02-17T00:13:26.948Z,7.60
2023-02-17T00:15:55.012Z,7.60
2023-02-17T00:18:24.560Z,7.60
2023-02-17T00:20:52.670Z,7.50
2023-02-17T00:23:20.487Z,7.40
2023-02-17T00:25:48.231Z,7.40
2023-02-17T00:28:15.982Z,7.30
2023-02-17T00:30:43.743Z,7.30
2023-02-17T00:33:11.457Z,7.30
2023-02-17T00:35:42.546Z,7.30
2023-02-17T00:38:10.335Z,7.30
2023-02-17T00:40:38.915Z,7.30
2023-02-17T00:43:06.747Z,7.30
2023-02-17T00:45:34.869Z,7.20
2023-02-17T00:48:02.638Z,7.20
2023-02-17T00:50:30.474Z,7.20
2023-02-17T00:53:00.661Z,7.20
2023-02-17T00:55:28.396Z,7.20
2023-02-17T00:57:56.122Z,7.10
2023-02-17T01:00:24.154Z,7.20
2023-02-17T01:02:52.386Z,7.20
2023-02-17T01:05:20.356Z,7.20
2023-02-17T01:07:48.121Z,7.20
2023-02-17T01:10:17.381Z,7.20
2023-02-17T01:12:45.133Z,7.20
2023-02-17T01:15:13.187Z,7.20
2023-02-17T01:17:41.026Z,7.20
2023-02-17T01:20:09.597Z,7.20
2023-02-17T01:22:40.206Z,7.10
2023-02-17T01:25:08.327Z,7.10
2023-02-17T01:27:37.798Z,7.10
2023-02-17T01:30:06.525Z,7.20
2023-02-17T01:32:34.269Z,7.10
2023-02-17T01:35:02.032Z,7.10
2023-02-17T01:37:29.745Z,7.00
2023-02-17T01:39:57.477Z,7.00
2023-02-17T01:42:25.220Z,7.00
2023-02-17T01:45:30.630Z,7.00
2023-02-17T01:48:03.352Z,7.00
2023-02-17T01:50:34.303Z,7.00
2023-02-17T01:53:05.019Z,7.00
2023-02-17T01:55:34.973Z,7.00
2023-02-17T01:58:04.387Z,7.00
2023-02-17T02:00:34.611Z,7.00
2023-02-17T02:03:06.448Z,7.10
2023-02-17T02:05:36.565Z,7.10
2023-02-17T02:08:05.942Z,7.10
2023-02-17T02:10:33.659Z,7.10
2023-02-17T02:13:01.401Z,7.10
2023-02-17T02:15:35.120Z,7.10
2023-02-17T02:18:26.312Z,7.10
2023-02-17T02:21:33.335Z,7.10
2023-02-17T02:24:22.837Z,7.10
2023-02-17T02:27:29.138Z,7.10
2023-02-17T02:30:27.910Z,7.10
2023-02-17T02:33:05.254Z,7.10
2023-02-17T02:35:41.863Z,7.10
2023-02-17T02:38:15.519Z,7.10
2023-02-17T02:40:48.222Z,7.10
2023-02-17T02:43:16.814Z,7.10
2023-02-17T02:45:44.583Z,7.10
2023-02-17T02:48:13.638Z,7.10
2023-02-17T02:51:16.109Z,7.10
2023-02-17T02:53:59.970Z,7.10
2023-02-17T02:56:41.866Z,7.00
2023-02-17T02:59:20.042Z,7.00
2023-02-17T03:01:55.080Z,6.90
2023-02-17T03:04:36.184Z,7.00
2023-02-17T03:07:09.840Z,6.90
2023-02-17T03:09:37.989Z,6.90
2023-02-17T03:12:06.082Z,6.90
2023-02-17T03:14:38.475Z,6.90
2023-02-17T03:17:06.309Z,6.80
2023-02-17T03:19:35.739Z,6.80
2023-02-17T03:22:09.715Z,6.80
2023-02-17T03:24:37.467Z,6.70
2023-02-17T03:27:05.256Z,6.80
2023-02-17T03:29:32.993Z,6.80
2023-02-17T03:32:01.324Z,6.80
2023-02-17T03:34:29.178Z,6.80
2023-02-17T03:36:58.298Z,6.70
2023-02-17T03:39:26.269Z,6.70
2023-02-17T03:41:54.041Z,6.70
2023-02-17T03:44:21.770Z,6.80
2023-02-17T03:46:49.546Z,6.80
2023-02-17T03:49:17.255Z,6.80
2023-02-17T03:51:45.001Z,6.80
2023-02-17T03:54:14.062Z,6.80
2023-02-17T03:56:41.840Z,6.80
2023-02-17T03:59:09.686Z,6.70
2023-02-17T04:01:37.541Z,6.70
2023-02-17T04:04:05.353Z,6.80
2023-02-17T04:06:33.286Z,6.80
2023-02-17T04:09:01.083Z,6.80
2023-02-17T04:11:30.235Z,6.80
2023-02-17T04:13:57.927Z,6.80
2023-02-17T04:16:25.732Z,6.80
2023-02-17T04:18:53.494Z,6.80
2023-02-17T04:21:21.225Z,6.80
2023-02-17T04:23:49.029Z,6.80
2023-02-17T04:26:16.818Z,6.70
2023-02-17T04:28:45.842Z,6.80
2023-02-17T04:31:13.695Z,6.80
2023-02-17T04:33:41.458Z,6.80
2023-02-17T04:36:09.572Z,6.80
2023-02-17T04:38:37.322Z,6.80
2023-02-17T04:41:06.250Z,6.80
2023-02-17T04:43:34.379Z,6.80
2023-02-17T04:46:03.679Z,6.80
2023-02-17T04:48:31.493Z,6.80
2023-02-17T04:50:59.278Z,6.80
2023-02-17T04:53:27.031Z,6.80
2023-02-17T04:55:54.770Z,6.80
2023-02-17T04:58:23.070Z,6.90
2023-02-17T05:00:52.089Z,6.80
2023-02-17T05:03:21.273Z,6.90
2023-02-17T05:05:50.211Z,6.90
2023-02-17T05:08:17.940Z,6.90
2023-02-17T05:10:45.710Z,6.90
2023-02-17T05:13:13.450Z,6.90
2023-02-17T05:15:41.202Z,6.90
2023-02-17T05:18:09.000Z,6.90
2023-02-17T05:20:38.140Z,6.90
2023-02-17T05:23:06.052Z,6.90
2023-02-17T05:25:33.810Z,7.00
2023-02-17T05:28:01.674Z,7.00
2023-02-17T05:30:29.658Z,7.10
2023-02-17T05:32:57.436Z,7.10
2023-02-17T05:35:25.161Z,7.10
2023-02-17T05:37:54.241Z,7.10
2023-02-17T05:40:22.105Z,7.10
2023-02-17T05:42:49.808Z,7.20
2023-02-17T05:45:17.570Z,7.20
2023-02-17T05:47:45.337Z,7.20
2023-02-17T05:50:13.253Z,7.20
2023-02-17T05:52:40.995Z,7.20
2023-02-17T05:55:10.326Z,7.20
2023-02-17T05:57:38.103Z,7.20
2023-02-17T06:00:07.472Z,7.30
2023-02-17T06:02:35.197Z,7.30
2023-02-17T06:05:03.175Z,7.40
2023-02-17T06:07:31.013Z,7.40
2023-02-17T06:09:58.782Z,7.40
2023-02-17T06:12:28.036Z,7.40
2023-02-17T06:14:55.792Z,7.40
2023-02-17T06:17:23.600Z,7.50
2023-02-17T06:19:51.287Z,7.50
2023-02-17T06:22:19.370Z,7.50
2023-02-17T06:24:47.360Z,7.60
2023-02-17T06:27:15.092Z,7.60
2023-02-17T06:29:44.576Z,7.60
2023-02-17T06:32:12.373Z,7.60
2023-02-17T06:34:40.154Z,7.60
2023-02-17T06:37:08.151Z,7.60
2023-02-17T06:39:35.940Z,7.60
2023-02-17T06:42:03.809Z,7.70
2023-02-17T06:44:31.628Z,7.70
2023-02-17T06:47:00.690Z,7.70
2023-02-17T06:49:28.415Z,7.70
2023-02-17T06:51:56.164Z,7.80
2023-02-17T06:54:23.881Z,7.80
2023-02-17T06:56:51.601Z,7.90
2023-02-17T06:59:19.388Z,7.90
2023-02-17T07:01:49.325Z,7.90
2023-02-17T07:04:18.513Z,7.90
2023-02-17T07:06:46.248Z,8.00
2023-02-17T07:09:14.022Z,8.00
2023-02-17T07:11:42.005Z,8.10
2023-02-17T07:14:09.710Z,8.10
2023-02-17T07:16:37.456Z,8.10
2023-02-17T07:19:05.156Z,8.20
2023-02-17T07:21:34.184Z,8.20
2023-02-17T07:24:01.886Z,8.20
2023-02-17T07:26:29.629Z,8.20
2023-02-17T07:28:57.412Z,8.20
2023-02-17T07:31:25.144Z,8.30
2023-02-17T07:33:52.941Z,8.40
2023-02-17T07:36:20.769Z,8.40
2023-02-17T07:38:50.430Z,8.40
2023-02-17T07:41:20.197Z,8.50
2023-02-17T07:43:48.736Z,8.50
2023-02-17T07:46:16.545Z,8.60
2023-02-17T07:48:44.274Z,8.60
2023-02-17T07:51:16.361Z,8.60
2023-02-17T07:53:44.508Z,8.80
2023-02-17T07:56:15.745Z,8.80
2023-02-17T07:58:44.680Z,8.90
2023-02-17T08:01:14.489Z,8.90
2023-02-17T08:03:42.955Z,8.90
2023-02-17T08:06:12.097Z,9.00
2023-02-17T08:08:57.683Z,9.00
2023-02-17T08:11:49.012Z,9.10
2023-02-17T08:14:18.063Z,9.10
2023-02-17T08:16:45.860Z,9.10
2023-02-17T08:19:13.603Z,9.10
2023-02-17T08:21:41.479Z,9.20
2023-02-17T08:24:09.355Z,9.20
2023-02-17T08:26:38.555Z,9.20
2023-02-17T08:29:06.535Z,9.20
2023-02-17T08:31:36.781Z,9.30
2023-02-17T08:34:07.179Z,9.30
2023-02-17T08:36:37.364Z,9.30
2023-02-17T08:39:06.064Z,9.30
2023-02-17T08:41:36.660Z,9.30
2023-02-17T08:44:09.876Z,9.30
2023-02-17T08:46:38.198Z,9.40
2023-02-17T08:49:07.230Z,9.40
2023-02-17T08:51:35.845Z,9.40
2023-02-17T08:54:04.760Z,9.50
2023-02-17T08:56:32.818Z,9.50
2023-02-17T08:59:00.962Z,9.50
2023-02-17T09:01:30.458Z,9.50
2023-02-17T09:03:59.657Z,9.50
2023-02-17T09:06:33.919Z,9.40
2023-02-17T09:09:02.309Z,9.40
2023-02-17T09:11:30.158Z,9.30
2023-02-17T09:13:58.102Z,9.30
2023-02-17T09:16:26.231Z,9.30
2023-02-17T09:18:55.632Z,9.30
2023-02-17T09:21:23.689Z,9.20
2023-02-17T09:23:51.923Z,9.20
2023-02-17T09:26:19.943Z,9.30
2023-02-17T09:28:48.400Z,9.30
2023-02-17T09:31:20.229Z,9.30
2023-02-17T09:33:49.077Z,9.30
2023-02-17T09:36:20.813Z,9.30
2023-02-17T09:38:48.858Z,9.40
2023-02-17T09:41:20.194Z,9.40
2023-02-17T09:43:48.599Z,9.40
2023-02-17T09:46:21.493Z,9.40
2023-02-17T09:48:50.623Z,9.50
2023-02-17T09:51:27.413Z,9.50
2023-02-17T09:54:03.937Z,9.50
2023-02-17T09:56:38.315Z,9.50
2023-02-17T09:59:15.108Z,9.60
2023-02-17T10:01:45.294Z,9.60
2023-02-17T10:04:18.299Z,9.60
2023-02-17T10:06:49.622Z,9.60
2023-02-17T10:09:24.343Z,9.60
2023-02-17T10:11:58.130Z,9.60
2023-02-17T10:14:31.514Z,9.60
2023-02-17T10:17:05.585Z,9.60
2023-02-17T10:19:38.425Z,9.60
2023-02-17T10:22:15.006Z,9.60
2023-02-17T10:24:42.794Z,9.60
2023-02-17T10:27:25.912Z,9.60
2023-02-17T10:30:05.403Z,9.70
2023-02-17T10:32:40.423Z,9.70
2023-02-17T10:35:16.335Z,9.70
2023-02-17T10:37:50.046Z,9.80
2023-02-17T10:40:21.766Z,9.80
2023-02-17T10:42:51.651Z,9.80
2023-02-17T10:45:27.121Z,9.90
2023-02-17T10:48:00.007Z,10.00
2023-02-17T10:50:27.839Z,10.10
2023-02-17T10:52:57.543Z,10.10
2023-02-17T10:55:34.666Z,10.10
2023-02-17T10:58:11.955Z,10.20
2023-02-17T11:00:39.843Z,10.20
2023-02-17T11:03:07.620Z,10.20
2023-02-17T11:05:36.130Z,10.30
2023-02-17T11:08:07.976Z,10.40
2023-02-17T11:10:38.601Z,10.50
2023-02-17T11:13:29.467Z,10.50
2023-02-17T11:15:57.487Z,10.60
2023-02-17T11:18:29.502Z,10.60
2023-02-17T11:21:06.416Z,10.60
2023-02-17T11:23:36.351Z,10.70
2023-02-17T11:26:10.937Z,10.80
2023-02-17T11:28:38.954Z,10.80
2023-02-17T11:31:07.277Z,10.90
2023-02-17T11:33:38.072Z,11.00
2023-02-17T11:36:07.810Z,11.10
2023-02-17T11:38:45.240Z,11.10
2023-02-17T11:41:13.207Z,11.10
2023-02-17T11:43:51.394Z,11.10
2023-02-17T11:46:25.922Z,11.10
2023-02-17T11:49:16.356Z,11.10
2023-02-17T11:51:54.275Z,11.20
2023-02-17T11:54:29.174Z,11.10
2023-02-17T11:57:18.283Z,11.20
2023-02-17T11:59:59.141Z,11.20
2023-02-17T12:02:44.178Z,11.30
2023-02-17T12:05:22.779Z,11.50
2023-02-17T12:08:08.182Z,11.50
2023-02-17T12:10:49.000Z,11.40
2023-02-17T12:13:30.369Z,11.40
2023-02-17T12:16:12.823Z,11.50
2023-02-17T12:18:50.078Z,11.50
2023-02-17T12:21:30.192Z,11.60
2023-02-17T12:24:14.612Z,11.60
2023-02-17T12:26:48.273Z,11.70
2023-02-17T12:29:31.098Z,11.60
2023-02-17T12:32:19.810Z,11.60
2023-02-17T12:34:55.109Z,11.70
2023-02-17T12:37:26.239Z,11.80
2023-02-17T12:39:57.382Z,11.80
2023-02-17T12:42:31.484Z,11.90
2023-02-17T12:45:04.383Z,12.10
2023-02-17T12:47:39.572Z,12.10
2023-02-17T12:50:16.637Z,12.10
2023-02-17T12:52:47.398Z,12.10
2023-02-17T12:55:22.011Z,12.10
2023-02-17T12:57:57.055Z,12.20
2023-02-17T13:00:28.681Z,12.20
2023-02-17T13:02:59.500Z,12.30
2023-02-17T13:05:31.387Z,12.40
2023-02-17T13:08:02.659Z,12.40
2023-02-17T13:10:36.841Z,12.50
2023-02-17T13:13:08.740Z,12.50
2023-02-17T13:15:39.867Z,12.50
2023-02-17T13:18:13.112Z,12.50
2023-02-17T13:20:57.114Z,12.50
2023-02-17T13:23:43.807Z,12.50
2023-02-17T13:26:35.668Z,12.40
2023-02-17T13:29:20.063Z,12.40
2023-02-17T13:31:51.457Z,12.50
2023-02-17T13:34:32.173Z,12.50
2023-02-17T13:37:03.354Z,12.60
2023-02-17T13:39:40.183Z,12.60
2023-02-17T13:42:36.062Z,12.70
2023-02-17T13:45:15.065Z,12.70
2023-02-17T13:47:43.570Z,12.70
2023-02-17T13:50:28.055Z,12.80
2023-02-17T13:52:56.328Z,12.80
2023-02-17T13:55:24.837Z,12.70
2023-02-17T13:57:55.443Z,12.70
2023-02-17T14:00:28.216Z,12.70
2023-02-17T14:02:58.453Z,12.60
2023-02-17T14:05:35.582Z,12.60
2023-02-17T14:08:07.034Z,12.60
2023-02-17T14:10:35.685Z,12.60
2023-02-17T14:13:03.554Z,12.50
2023-02-17T14:15:33.144Z,12.60
2023-02-17T14:18:00.927Z,12.60
2023-02-17T14:20:31.826Z,12.50
2023-02-17T14:23:05.534Z,12.60
2023-02-17T14:25:48.319Z,12.60
2023-02-17T14:28:21.395Z,12.60
2023-02-17T14:30:52.113Z,12.50
2023-02-17T14:33:23.741Z,12.50
2023-02-17T14:35:54.139Z,12.40
2023-02-17T14:38:25.018Z,12.30
2023-02-17T14:40:55.765Z,12.20
2023-02-17T14:43:24.185Z,12.20
2023-02-17T14:45:53.271Z,12.20
2023-02-17T14:48:21.136Z,12.10
2023-02-17T14:50:49.554Z,12.10
2023-02-17T14:53:25.580Z,12.20
2023-02-17T14:55:59.455Z,12.20
2023-02-17T14:58:28.202Z,12.20
2023-02-17T15:00:57.928Z,12.20
2023-02-17T15:03:25.836Z,12.20
2023-02-17T15:05:55.945Z,12.30
2023-02-17T15:08:30.202Z,12.20
2023-02-17T15:10:57.978Z,12.20
2023-02-17T15:13:26.439Z,12.10
2023-02-17T15:15:54.374Z,12.20
2023-02-17T15:18:23.634Z,12.20
2023-02-17T15:20:53.920Z,12.20
2023-02-17T15:23:25.548Z,12.10
2023-02-17T15:25:54.772Z,11.90
2023-02-17T15:28:22.791Z,11.80
2023-02-17T15:30:53.046Z,11.60
2023-02-17T15:33:23.549Z,11.60
2023-02-17T15:35:54.508Z,11.50
2023-02-17T15:38:23.213Z,11.40
2023-02-17T15:40:51.438Z,11.40
2023-02-17T15:43:22.839Z,11.30
2023-02-17T15:45:50.675Z,11.30
2023-02-17T15:48:25.613Z,11.30
2023-02-17T15:50:54.314Z,11.30
2023-02-17T15:53:22.253Z,11.30
2023-02-17T15:55:51.151Z,11.30
2023-02-17T15:58:22.054Z,11.20
2023-02-17T16:00:51.217Z,11.20
2023-02-17T16:03:19.264Z,11.20
2023-02-17T16:05:48.849Z,11.10
2023-02-17T16:08:16.675Z,11.10
2023-02-17T16:10:46.720Z,11.10
2023-02-17T16:13:17.614Z,11.10
2023-02-17T16:15:45.709Z,11.00
2023-02-17T16:18:20.313Z,11.10
2023-02-17T16:20:49.663Z,11.10
2023-02-17T16:23:17.455Z,11.00
2023-02-17T16:25:47.211Z,11.10
2023-02-17T16:28:17.723Z,11.10
2023-02-17T16:30:46.343Z,11.10
2023-02-17T16:33:14.516Z,11.10
2023-02-17T16:35:43.501Z,11.00
2023-02-17T16:38:17.097Z,11.00
2023-02-17T16:40:48.227Z,11.10
2023-02-17T16:43:16.554Z,11.10
2023-02-17T16:45:51.447Z,11.10
2023-02-17T16:48:19.962Z,11.00
2023-02-17T16:50:47.746Z,11.10
2023-02-17T16:53:16.806Z,11.10
2023-02-17T16:55:45.619Z,11.00
2023-02-17T16:58:17.623Z,11.00
2023-02-17T17:00:46.219Z,11.00
2023-02-17T17:03:14.604Z,11.10
2023-02-17T17:05:42.933Z,11.10
2023-02-17T17:08:26.988Z,11.10
2023-02-17T17:10:54.946Z,11.10
2023-02-17T17:13:22.655Z,11.10
2023-02-17T17:15:50.428Z,11.20
2023-02-17T17:18:21.818Z,11.20
2023-02-17T17:20:50.707Z,11.20
2023-02-17T17:23:19.080Z,11.20
2023-02-17T17:25:48.587Z,11.30
2023-02-17T17:28:18.576Z,11.40
2023-02-17T17:30:47.004Z,11.40
2023-02-17T17:33:14.838Z,11.50
2023-02-17T17:35:43.289Z,11.50
2023-02-17T17:38:15.343Z,11.50
2023-02-17T17:40:49.137Z,11.50
2023-02-17T17:43:20.196Z,11.40
2023-02-17T17:45:48.239Z,11.50
2023-02-17T17:48:16.898Z,11.40
2023-02-17T17:50:45.116Z,11.40
2023-02-17T17:53:13.030Z,11.40
2023-02-17T17:55:40.912Z,11.30
2023-02-17T17:58:12.789Z,11.30
2023-02-17T18:00:41.955Z,11.20
2023-02-17T18:03:09.764Z,11.10
2023-02-17T18:05:38.214Z,11.20
2023-02-17T18:08:09.305Z,11.10
2023-02-17T18:10:39.223Z,11.20
2023-02-17T18:13:11.139Z,11.30
2023-02-17T18:15:39.195Z,11.40
2023-02-17T18:18:08.715Z,11.40
2023-02-17T18:20:36.488Z,11.40
2023-02-17T18:23:04.250Z,11.40
2023-02-17T18:25:32.231Z,11.40
2023-02-17T18:28:00.162Z,11.40
2023-02-17T18:30:28.205Z,11.30
2023-02-17T18:32:56.179Z,11.20
2023-02-17T18:35:25.315Z,11.10
2023-02-17T18:37:53.651Z,11.10
2023-02-17T18:40:22.521Z,11.10
2023-02-17T18:42:50.287Z,11.10
2023-02-17T18:45:18.441Z,11.10
2023-02-17T18:47:46.542Z,11.10
2023-02-17T18:50:15.847Z,11.10
2023-02-17T18:52:45.321Z,11.00
2023-02-17T18:55:13.700Z,11.00
2023-02-17T18:57:41.619Z,11.00
2023-02-17T19:00:11.323Z,10.90
2023-02-17T19:02:39.940Z,10.90
2023-02-17T19:05:10.450Z,10.90
2023-02-17T19:07:38.346Z,10.90
2023-02-17T19:10:09.012Z,10.80
2023-02-17T19:12:37.899Z,10.80
2023-02-17T19:15:06.059Z,10.90
2023-02-17T19:17:33.890Z,10.80
2023-02-17T19:20:01.768Z,10.90
2023-02-17T19:22:29.629Z,10.80
2023-02-17T19:24:57.377Z,10.80
2023-02-17T19:27:26.678Z,10.90
2023-02-17T19:29:54.756Z,11.00
2023-02-17T19:32:22.520Z,11.00
2023-02-17T19:34:50.585Z,11.00
2023-02-17T19:37:18.305Z,11.00
2023-02-17T19:39:46.540Z,10.90
2023-02-17T19:42:14.339Z,10.90
2023-02-17T19:44:43.542Z,10.80
2023-02-17T19:47:11.294Z,10.80
2023-02-17T19:49:38.996Z,10.80
2023-02-17T19:52:07.478Z,10.80
2023-02-17T19:54:37.586Z,10.70
2023-02-17T19:57:05.574Z,10.70
2023-02-17T19:59:34.392Z,10.70
2023-02-17T20:02:03.554Z,10.60
2023-02-17T20:04:31.628Z,10.60
2023-02-17T20:06:59.435Z,10.50
2023-02-17T20:09:27.243Z,10.50
2023-02-17T20:11:55.172Z,10.40
2023-02-17T20:14:22.971Z,10.40
2023-02-17T20:16:53.288Z,10.20
2023-02-17T20:19:22.523Z,10.10
2023-02-17T20:21:50.374Z,10.00
2023-02-17T20:24:18.284Z,9.80
2023-02-17T20:26:48.752Z,9.70
2023-02-17T20:29:16.495Z,9.60
2023-02-17T20:31:44.674Z,9.50
2023-02-17T20:34:26.950Z,9.50
2023-02-17T20:36:55.724Z,9.40
2023-02-17T20:39:23.741Z,9.50
2023-02-17T20:41:51.618Z,9.50
2023-02-17T20:44:19.956Z,9.40
2023-02-17T20:46:48.219Z,9.20
2023-02-17T20:49:16.300Z,9.00
2023-02-17T20:51:45.394Z,8.90
2023-02-17T20:54:13.276Z,8.80
2023-02-17T20:56:43.735Z,8.80
2023-02-17T20:59:12.879Z,8.70
2023-02-17T21:01:41.593Z,8.70
2023-02-17T21:04:09.700Z,8.60
2023-02-17T21:06:39.918Z,8.70
2023-02-17T21:09:13.300Z,8.70
2023-02-17T21:11:41.271Z,8.70
2023-02-17T21:14:09.379Z,8.70
2023-02-17T21:16:37.791Z,8.60
2023-02-17T21:19:06.071Z,8.50
2023-02-17T21:21:33.925Z,8.50
2023-02-17T21:24:01.717Z,8.40
2023-02-17T21:26:30.861Z,8.40
2023-02-17T21:28:58.595Z,8.30
2023-02-17T21:31:28.826Z,8.20
2023-02-17T21:33:56.984Z,8.20
2023-02-17T21:36:24.831Z,8.10
2023-02-17T21:38:52.649Z,8.10
2023-02-17T21:41:22.779Z,8.10
2023-02-17T21:44:09.374Z,8.00
2023-02-17T21:46:37.742Z,8.00
2023-02-17T21:49:05.469Z,8.00
2023-02-17T21:51:33.419Z,8.00
2023-02-17T21:54:01.279Z,8.00
2023-02-17T21:56:29.122Z,8.00
2023-02-17T21:58:58.295Z,8.00
2023-02-17T22:01:27.648Z,8.00
2023-02-17T22:03:57.576Z,7.90
2023-02-17T22:06:27.253Z,7.90
2023-02-17T22:08:55.726Z,7.80
2023-02-17T22:11:25.272Z,7.90
2023-02-17T22:13:55.722Z,7.90
2023-02-17T22:16:24.998Z,7.90
2023-02-17T22:18:53.164Z,7.90
2023-02-17T22:21:20.953Z,7.80
2023-02-17T22:23:48.817Z,7.60
2023-02-17T22:26:18.408Z,7.50
2023-02-17T22:28:47.055Z,7.40
2023-02-17T22:31:16.516Z,7.30
2023-02-17T22:33:45.751Z,7.30
2023-02-17T22:36:15.976Z,7.30
2023-02-17T22:38:44.510Z,7.20
2023-02-17T22:41:15.128Z,7.20
2023-02-17T22:43:44.332Z,7.10
2023-02-17T22:46:16.093Z,7.10
2023-02-17T22:48:46.821Z,7.10
2023-02-17T22:51:17.669Z,7.00
2023-02-17T22:53:45.675Z,6.90
2023-02-17T22:56:14.311Z,7.00
2023-02-17T22:58:42.432Z,7.00
2023-02-17T23:01:12.247Z,7.10
2023-02-17T23:03:40.165Z,7.10
2023-02-17T23:06:12.374Z,7.10
2023-02-17T23:08:40.897Z,7.10
2023-02-17T23:11:11.234Z,7.00
2023-02-17T23:13:40.023Z,7.10
2023-02-17T23:16:08.985Z,7.00
2023-02-17T23:18:38.845Z,7.00
2023-02-17T23:21:12.833Z,7.00
2023-02-17T23:23:40.957Z,7.00
2023-02-17T23:26:09.287Z,7.00
2023-02-17T23:28:37.515Z,7.00
2023-02-17T23:31:05.427Z,7.00
2023-02-17T23:33:33.220Z,7.00
2023-02-17T23:36:03.966Z,7.00
2023-02-17T23:38:33.539Z,6.90
2023-02-17T23:41:01.843Z,6.90
2023-02-17T23:43:30.006Z,6.70
2023-02-17T23:45:57.923Z,6.70
2023-02-17T23:48:25.650Z,6.80
2023-02-17T23:50:57.255Z,6.80
2023-02-17T23:53:25.004Z,6.80
2023-02-17T23:56:03.602Z,6.80
2023-02-17T23:58:31.905Z,6.80
